This is the latest recevied weather packets stored in our database for station/object KN1OBI-13. If no packets are shown the sender has not sent any weather packets the latest 10 day(s).
| Time | Temp. | Humidity | Pressure | Rain* | Wind** | Luminosity | Snow |
|---|---|---|---|---|---|---|---|
| 1777350501 | 7.22° C | 64% | 1003 hPa | 0 mm | - | - | - |
| 1777349302 | 7.78° C | 63% | 1003.2 hPa | 0 mm | - | - | - |
| 1777348701 | 7.78° C | 63% | 1003.1 hPa | 0 mm | - | - | - |
| 1777346902 | 8.33° C | 60% | 1003.1 hPa | 0 mm | - | - | - |
| 1777345102 | 8.89° C | 56% | 1003.1 hPa | 0 mm | - | - | - |
| 1777343902 | 9.44° C | 55% | 1003.5 hPa | 0 mm | - | - | - |
| 1777342701 | 10° C | 51% | 1003.3 hPa | 0 mm | - | - | - |
| 1777341501 | 11.11° C | 49% | 1003.4 hPa | 0 mm | - | - | - |
| 1777340901 | 11.11° C | 49% | 1003.4 hPa | 0 mm | - | - | - |
| 1777340301 | 11.67° C | 49% | 1003.6 hPa | 0 mm | - | - | - |
| 1777338501 | 12.78° C | 43% | 1003.9 hPa | 0 mm | - | - | - |
| 1777337301 | 13.33° C | 41% | 1003.5 hPa | 0 mm | - | - | - |
| 1777336701 | 13.33° C | 40% | 1003.4 hPa | 0 mm | - | - | - |
| 1777336102 | 13.89° C | 40% | 1003.3 hPa | 0 mm | - | - | - |
| 1777334302 | 15° C | 37% | 1003.2 hPa | 0 mm | - | - | - |
| 1777333101 | 16.11° C | 35% | 1003.1 hPa | 0 mm | - | - | - |
| 1777332502 | 16.67° C | 34% | 1003.1 hPa | 0 mm | - | - | - |
| 1777331301 | 17.78° C | 33% | 1003.2 hPa | 0 mm | - | - | - |
| 1777330101 | 18.89° C | 30% | 1003.1 hPa | 0 mm | - | - | - |
| 1777328301 | 23.33° C | 25% | 1003.4 hPa | 0 mm | - | - | - |
| 1777327701 | 23.33° C | 23% | 1003.4 hPa | 0 mm | - | - | - |
| 1777325301 | 23.89° C | 23% | 1003.1 hPa | 0 mm | - | - | - |
| 1777321101 | 23.89° C | 22% | 1002.5 hPa | 0 mm | - | - | - |
| 1777320501 | 24.44° C | 23% | 1002.6 hPa | 0 mm | - | - | - |
| 1777316901 | 23.89° C | 25% | 1003 hPa | 0 mm | - | - | - |
* Rain latest hour (hover to see other rain measurements)
** Current wind speed in m/s (hover to see current wind gust speed)